createdAt,value
2023-02-15T00:00:11.305Z,6.40
2023-02-15T00:02:38.996Z,5.53
2023-02-15T00:05:06.591Z,6.20
2023-02-15T00:07:33.631Z,4.95
2023-02-15T00:10:00.856Z,3.15
2023-02-15T00:12:27.925Z,4.45
2023-02-15T00:14:54.981Z,4.97
2023-02-15T00:17:22.483Z,5.53
2023-02-15T00:19:49.847Z,3.67
2023-02-15T00:22:16.907Z,4.25
2023-02-15T00:24:43.939Z,4.55
2023-02-15T00:27:11.130Z,2.92
2023-02-15T00:29:38.434Z,2.92
2023-02-15T00:32:05.531Z,3.88
2023-02-15T00:34:32.606Z,3.10
2023-02-15T00:36:59.701Z,4.07
2023-02-15T00:39:28.130Z,4.20
2023-02-15T00:41:55.216Z,4.55
2023-02-15T00:44:22.287Z,4.25
2023-02-15T00:46:49.365Z,3.25
2023-02-15T00:49:16.487Z,3.53
2023-02-15T00:51:43.564Z,3.33
2023-02-15T00:54:10.668Z,2.83
2023-02-15T00:56:37.773Z,3.22
2023-02-15T00:59:04.870Z,1.30
2023-02-15T01:01:32.134Z,2.13
2023-02-15T01:03:59.225Z,1.40
2023-02-15T01:06:26.305Z,6.63
2023-02-15T01:08:53.441Z,3.97
2023-02-15T01:11:22.880Z,2.83
2023-02-15T01:13:52.040Z,6.60
2023-02-15T01:16:19.653Z,4.50
2023-02-15T01:18:47.732Z,1.90
2023-02-15T01:21:21.619Z,2.95
2023-02-15T01:23:48.830Z,2.65
2023-02-15T01:26:16.415Z,4.57
2023-02-15T01:28:43.522Z,4.73
2023-02-15T01:31:13.503Z,4.60
2023-02-15T01:33:40.790Z,2.37
2023-02-15T01:36:07.916Z,3.75
2023-02-15T01:38:36.330Z,2.90
2023-02-15T01:41:23.951Z,2.72
2023-02-15T01:44:02.639Z,1.27
2023-02-15T01:46:44.875Z,1.70
2023-02-15T01:49:17.418Z,1.55
2023-02-15T01:51:47.385Z,1.53
2023-02-15T01:54:31.676Z,2.53
2023-02-15T01:57:04.328Z,1.40
2023-02-15T01:59:33.882Z,7.18
2023-02-15T02:02:02.822Z,3.05
2023-02-15T02:04:36.183Z,4.00
2023-02-15T02:07:05.172Z,3.80
2023-02-15T02:09:33.044Z,2.90
2023-02-15T02:12:00.897Z,2.05
2023-02-15T02:14:28.117Z,2.55
2023-02-15T02:17:06.883Z,2.85
2023-02-15T02:20:03.439Z,3.38
2023-02-15T02:22:56.456Z,4.07
2023-02-15T02:25:44.570Z,2.73
2023-02-15T02:28:26.706Z,2.25
2023-02-15T02:31:22.744Z,3.30
2023-02-15T02:33:56.067Z,3.33
2023-02-15T02:36:37.778Z,5.38
2023-02-15T02:39:26.218Z,4.40
2023-02-15T02:41:58.125Z,4.07
2023-02-15T02:44:44.229Z,3.47
2023-02-15T02:47:30.662Z,4.13
2023-02-15T02:50:06.422Z,3.10
2023-02-15T02:52:46.780Z,2.83
2023-02-15T02:55:38.520Z,2.60
2023-02-15T02:58:27.070Z,3.80
2023-02-15T03:01:07.095Z,5.80
2023-02-15T03:03:45.322Z,3.25
2023-02-15T03:06:18.994Z,6.85
2023-02-15T03:08:56.296Z,5.15
2023-02-15T03:11:23.358Z,3.20
2023-02-15T03:13:50.766Z,4.20
2023-02-15T03:16:28.909Z,4.05
2023-02-15T03:19:15.354Z,3.40
2023-02-15T03:21:58.311Z,5.13
2023-02-15T03:24:31.015Z,3.13
2023-02-15T03:26:59.084Z,6.05
2023-02-15T03:29:29.593Z,7.30
2023-02-15T03:32:02.613Z,2.83
2023-02-15T03:34:30.337Z,2.83
2023-02-15T03:37:13.750Z,3.72
2023-02-15T03:39:52.709Z,5.33
2023-02-15T03:42:28.920Z,8.77
2023-02-15T03:45:00.856Z,5.27
2023-02-15T03:47:32.208Z,3.93
2023-02-15T03:50:28.956Z,4.15
2023-02-15T03:52:58.302Z,5.80
2023-02-15T03:55:25.885Z,4.80
2023-02-15T03:58:12.164Z,2.47
2023-02-15T04:01:18.098Z,3.20
2023-02-15T04:03:53.943Z,6.85
2023-02-15T04:06:20.997Z,4.47
2023-02-15T04:09:06.549Z,5.83
2023-02-15T04:11:33.593Z,4.68
2023-02-15T04:14:20.630Z,4.50
2023-02-15T04:16:47.745Z,3.80
2023-02-15T04:19:33.752Z,4.22
2023-02-15T04:22:19.336Z,2.85
2023-02-15T04:25:04.985Z,4.32
2023-02-15T04:27:32.027Z,3.10
2023-02-15T04:29:59.128Z,5.97
2023-02-15T04:32:26.221Z,1.85
2023-02-15T04:34:53.269Z,3.20
2023-02-15T04:37:20.541Z,2.92
2023-02-15T04:39:47.644Z,1.92
2023-02-15T04:42:14.685Z,1.83
2023-02-15T04:44:42.587Z,2.70
2023-02-15T04:47:09.668Z,2.88
2023-02-15T04:49:36.707Z,9.32
2023-02-15T04:52:03.935Z,6.43
2023-02-15T04:54:31.023Z,3.90
2023-02-15T04:56:58.072Z,4.00
2023-02-15T04:59:25.143Z,4.55
2023-02-15T05:01:52.243Z,3.33
2023-02-15T05:04:19.441Z,4.03
2023-02-15T05:06:46.552Z,2.22
2023-02-15T05:09:14.421Z,4.18
2023-02-15T05:11:41.616Z,4.63
2023-02-15T05:14:08.846Z,3.75
2023-02-15T05:16:36.000Z,3.85
2023-02-15T05:19:03.365Z,2.38
2023-02-15T05:21:30.716Z,2.90
2023-02-15T05:23:57.762Z,2.13
2023-02-15T05:26:44.482Z,2.28
2023-02-15T05:29:11.905Z,2.58
2023-02-15T05:31:39.343Z,3.38
2023-02-15T05:34:06.504Z,3.03
2023-02-15T05:36:33.558Z,3.90
2023-02-15T05:39:00.638Z,2.10
2023-02-15T05:41:27.755Z,2.25
2023-02-15T05:43:57.756Z,2.40
2023-02-15T05:46:24.894Z,4.97
2023-02-15T05:48:51.997Z,5.72
2023-02-15T05:51:19.034Z,4.80
2023-02-15T05:53:46.100Z,9.88
2023-02-15T05:56:13.275Z,5.10
2023-02-15T05:58:41.707Z,6.07
2023-02-15T06:01:12.918Z,3.70
2023-02-15T06:03:41.017Z,4.20
2023-02-15T06:06:09.053Z,8.55
2023-02-15T06:08:37.649Z,6.03
2023-02-15T06:11:06.144Z,5.07
2023-02-15T06:13:34.151Z,3.25
2023-02-15T06:16:02.919Z,2.97
2023-02-15T06:18:30.162Z,4.43
2023-02-15T06:20:57.187Z,3.15
2023-02-15T06:23:24.228Z,4.10
2023-02-15T06:25:51.385Z,4.07
2023-02-15T06:28:18.446Z,2.45
2023-02-15T06:30:45.558Z,3.13
2023-02-15T06:33:12.691Z,3.07
2023-02-15T06:35:39.798Z,4.10
2023-02-15T06:38:07.313Z,3.17
2023-02-15T06:40:34.366Z,4.20
2023-02-15T06:43:01.474Z,3.25
2023-02-15T06:45:28.539Z,6.47
2023-02-15T06:47:55.611Z,6.00
2023-02-15T06:50:22.690Z,6.60
2023-02-15T06:52:49.820Z,5.57
2023-02-15T06:55:16.940Z,6.50
2023-02-15T06:57:43.996Z,7.40
2023-02-15T07:00:11.667Z,4.75
2023-02-15T07:02:38.709Z,5.22
2023-02-15T07:05:06.082Z,6.90
2023-02-15T07:07:33.479Z,3.17
2023-02-15T07:10:00.532Z,6.50
2023-02-15T07:12:43.218Z,10.10
2023-02-15T07:15:12.469Z,23.70
2023-02-15T07:17:39.865Z,15.73
2023-02-15T07:20:12.641Z,11.10
2023-02-15T07:22:39.780Z,16.08
2023-02-15T07:25:09.238Z,14.23
2023-02-15T07:27:36.550Z,17.67
2023-02-15T07:30:05.560Z,14.43
2023-02-15T07:32:33.409Z,12.90
2023-02-15T07:35:01.049Z,13.55
2023-02-15T07:37:28.996Z,6.60
2023-02-15T07:39:56.076Z,5.60
2023-02-15T07:42:23.237Z,6.83
2023-02-15T07:44:50.460Z,9.68
2023-02-15T07:47:17.582Z,4.53
2023-02-15T07:49:45.699Z,4.60
2023-02-15T07:52:12.771Z,8.50
2023-02-15T07:54:39.887Z,7.15
2023-02-15T07:57:06.961Z,9.00
2023-02-15T07:59:34.086Z,8.02
2023-02-15T08:02:01.160Z,7.28
2023-02-15T08:04:28.243Z,6.30
2023-02-15T08:06:55.993Z,10.13
2023-02-15T08:09:23.332Z,14.23
2023-02-15T08:11:50.646Z,4.00
2023-02-15T08:14:21.123Z,6.57
2023-02-15T08:16:53.216Z,5.32
2023-02-15T08:19:25.602Z,4.20
2023-02-15T08:21:55.489Z,6.32
2023-02-15T08:24:24.100Z,5.88
2023-02-15T08:26:52.296Z,3.42
2023-02-15T08:29:23.346Z,5.03
2023-02-15T08:31:53.771Z,6.65
2023-02-15T08:34:21.323Z,5.38
2023-02-15T08:36:48.519Z,3.53
2023-02-15T08:39:16.617Z,4.45
2023-02-15T08:41:46.689Z,4.68
2023-02-15T08:44:16.266Z,5.72
2023-02-15T08:46:45.633Z,5.77
2023-02-15T08:49:21.222Z,6.72
2023-02-15T08:51:49.897Z,5.00
2023-02-15T08:54:20.089Z,3.47
2023-02-15T08:56:47.628Z,7.00
2023-02-15T08:59:21.170Z,3.90
2023-02-15T09:01:50.168Z,6.47
2023-02-15T09:04:17.764Z,4.90
2023-02-15T09:06:48.778Z,4.95
2023-02-15T09:09:17.509Z,3.50
2023-02-15T09:11:47.547Z,3.90
2023-02-15T09:14:22.376Z,6.82
2023-02-15T09:16:51.825Z,7.33
2023-02-15T09:19:20.488Z,6.25
2023-02-15T09:21:47.863Z,7.25
2023-02-15T09:24:17.083Z,13.15
2023-02-15T09:26:46.770Z,13.05
2023-02-15T09:29:15.920Z,8.00
2023-02-15T09:31:46.063Z,11.80
2023-02-15T09:34:16.922Z,8.82
2023-02-15T09:36:44.684Z,10.23
2023-02-15T09:39:14.528Z,22.27
2023-02-15T09:41:54.469Z,15.20
2023-02-15T09:44:59.180Z,6.80
2023-02-15T09:47:32.362Z,9.57
2023-02-15T09:50:08.338Z,13.33
2023-02-15T09:53:20.561Z,20.23
2023-02-15T09:55:50.920Z,22.75
2023-02-15T09:58:42.255Z,28.38
2023-02-15T10:01:09.378Z,34.22
2023-02-15T10:03:59.553Z,23.23
2023-02-15T10:06:45.253Z,31.27
2023-02-15T10:09:25.541Z,59.37
2023-02-15T10:12:11.089Z,34.15
2023-02-15T10:15:27.822Z,16.05
2023-02-15T10:18:16.575Z,53.42
2023-02-15T10:21:03.575Z,60.35
2023-02-15T10:23:48.849Z,42.17
2023-02-15T10:26:27.769Z,30.20
2023-02-15T10:28:57.937Z,16.70
2023-02-15T10:31:36.641Z,18.83
2023-02-15T10:34:44.192Z,18.60
2023-02-15T10:37:54.433Z,15.30
2023-02-15T10:40:29.354Z,7.53
2023-02-15T10:43:20.032Z,10.23
2023-02-15T10:46:03.942Z,5.53
2023-02-15T10:49:08.805Z,6.53
2023-02-15T10:51:53.642Z,3.85
2023-02-15T10:54:49.705Z,7.55
2023-02-15T10:57:48.868Z,15.15
2023-02-15T11:00:46.784Z,4.82
2023-02-15T11:03:16.700Z,8.40
2023-02-15T11:05:58.646Z,5.63
2023-02-15T11:08:27.367Z,6.88
2023-02-15T11:11:01.848Z,6.63
2023-02-15T11:13:35.828Z,3.42
2023-02-15T11:16:12.153Z,5.72
2023-02-15T11:18:51.155Z,4.77
2023-02-15T11:21:41.826Z,5.87
2023-02-15T11:24:13.424Z,7.20
2023-02-15T11:26:45.518Z,7.57
2023-02-15T11:29:32.820Z,3.95
2023-02-15T11:32:05.462Z,5.20
2023-02-15T11:35:00.463Z,3.38
2023-02-15T11:37:37.905Z,2.70
2023-02-15T11:40:18.545Z,3.05
2023-02-15T11:42:47.985Z,4.70
2023-02-15T11:45:24.965Z,2.80
2023-02-15T11:47:52.861Z,1.88
2023-02-15T11:50:32.560Z,2.30
2023-02-15T11:53:07.053Z,1.30
2023-02-15T11:55:35.995Z,1.85
2023-02-15T11:58:22.925Z,2.70
2023-02-15T12:00:54.847Z,1.08
2023-02-15T12:03:40.574Z,1.58
2023-02-15T12:06:14.097Z,4.00
2023-02-15T12:08:48.739Z,3.50
2023-02-15T12:11:23.336Z,1.85
2023-02-15T12:14:01.729Z,1.57
2023-02-15T12:16:32.483Z,1.17
2023-02-15T12:19:01.903Z,1.38
2023-02-15T12:21:39.752Z,1.70
2023-02-15T12:24:25.714Z,1.60
2023-02-15T12:27:22.778Z,1.08
2023-02-15T12:29:53.812Z,1.10
2023-02-15T12:32:27.244Z,1.10
2023-02-15T12:35:01.673Z,0.90
2023-02-15T12:37:32.897Z,0.80
2023-02-15T12:40:01.834Z,1.40
2023-02-15T12:42:45.549Z,1.08
2023-02-15T12:45:30.140Z,1.30
2023-02-15T12:48:18.282Z,0.90
2023-02-15T12:50:46.955Z,0.95
2023-02-15T12:53:32.172Z,1.20
2023-02-15T12:56:01.824Z,0.95
2023-02-15T12:58:31.299Z,1.20
2023-02-15T13:01:13.476Z,2.58
2023-02-15T13:04:05.218Z,3.90
2023-02-15T13:06:37.387Z,3.38
2023-02-15T13:09:20.469Z,5.18
2023-02-15T13:11:47.895Z,2.80
2023-02-15T13:14:27.352Z,3.20
2023-02-15T13:16:59.287Z,2.47
2023-02-15T13:19:43.518Z,4.32
2023-02-15T13:22:29.296Z,2.47
2023-02-15T13:24:59.836Z,2.42
2023-02-15T13:27:37.969Z,7.68
2023-02-15T13:30:22.590Z,2.90
2023-02-15T13:32:52.429Z,4.88
2023-02-15T13:35:20.037Z,1.50
2023-02-15T13:38:07.375Z,1.85
2023-02-15T13:40:53.262Z,2.20
2023-02-15T13:43:50.585Z,3.55
2023-02-15T13:46:44.019Z,2.80
2023-02-15T13:49:24.707Z,1.80
2023-02-15T13:52:06.708Z,1.00
2023-02-15T13:55:11.377Z,1.10
2023-02-15T13:58:05.844Z,1.80
2023-02-15T14:01:00.051Z,1.30
2023-02-15T14:03:53.169Z,1.10
2023-02-15T14:06:26.029Z,1.40
2023-02-15T14:09:03.107Z,1.23
2023-02-15T14:11:48.766Z,1.30
2023-02-15T14:14:46.682Z,2.10
2023-02-15T14:17:44.620Z,0.90
2023-02-15T14:20:51.036Z,0.80
2023-02-15T14:23:28.505Z,1.00
2023-02-15T14:26:05.580Z,2.08
2023-02-15T14:28:45.819Z,1.00
2023-02-15T14:31:15.548Z,3.65
2023-02-15T14:33:54.675Z,2.55
2023-02-15T14:36:23.545Z,3.25
2023-02-15T14:39:46.930Z,3.75
2023-02-15T14:42:32.038Z,8.20
2023-02-15T14:45:06.377Z,8.88
2023-02-15T14:47:43.777Z,4.65
2023-02-15T14:50:38.086Z,4.57
2023-02-15T14:53:25.945Z,3.30
2023-02-15T14:56:11.074Z,2.72
2023-02-15T14:58:39.012Z,3.80
2023-02-15T15:01:11.289Z,1.42
2023-02-15T15:03:49.161Z,2.53
2023-02-15T15:06:31.379Z,5.07
2023-02-15T15:09:12.040Z,1.60
2023-02-15T15:11:46.103Z,3.10
2023-02-15T15:14:32.053Z,1.15
2023-02-15T15:17:00.952Z,5.00
2023-02-15T15:19:52.833Z,3.90
2023-02-15T15:22:24.743Z,17.05
2023-02-15T15:24:57.149Z,23.05
2023-02-15T15:27:44.542Z,33.70
2023-02-15T15:30:14.684Z,14.30
2023-02-15T15:33:00.515Z,9.38
2023-02-15T15:35:46.198Z,7.95
2023-02-15T15:38:13.323Z,16.40
2023-02-15T15:40:46.263Z,19.35
2023-02-15T15:43:33.693Z,17.80
2023-02-15T15:46:18.271Z,15.13
2023-02-15T15:48:45.521Z,16.35
2023-02-15T15:51:19.328Z,21.55
2023-02-15T15:53:52.122Z,29.63
2023-02-15T15:56:45.249Z,25.48
2023-02-15T15:59:19.850Z,41.77
2023-02-15T16:01:47.853Z,31.63
2023-02-15T16:04:33.085Z,27.50
2023-02-15T16:07:18.419Z,26.20
2023-02-15T16:09:55.556Z,22.83
2023-02-15T16:12:23.860Z,22.20
2023-02-15T16:14:53.720Z,29.95
2023-02-15T16:17:24.281Z,31.77
2023-02-15T16:19:53.331Z,22.83
2023-02-15T16:22:24.818Z,20.92
2023-02-15T16:25:29.509Z,17.45
2023-02-15T16:27:56.692Z,27.13
2023-02-15T16:30:31.598Z,35.83
2023-02-15T16:33:10.728Z,29.67
2023-02-15T16:35:40.339Z,24.02
2023-02-15T16:38:11.280Z,48.78
2023-02-15T16:40:42.850Z,29.23
2023-02-15T16:43:27.145Z,25.02
2023-02-15T16:46:05.236Z,20.33
2023-02-15T16:48:34.348Z,18.90
2023-02-15T16:51:02.105Z,18.55
2023-02-15T16:53:30.300Z,19.15
2023-02-15T16:56:01.238Z,23.60
2023-02-15T16:58:36.670Z,15.13
2023-02-15T17:01:07.228Z,16.20
2023-02-15T17:03:34.710Z,11.40
2023-02-15T17:06:04.011Z,15.00
2023-02-15T17:08:44.851Z,14.07
2023-02-15T17:11:19.681Z,16.63
2023-02-15T17:14:07.444Z,15.20
2023-02-15T17:16:36.189Z,14.77
2023-02-15T17:19:10.576Z,10.40
2023-02-15T17:21:46.994Z,13.70
2023-02-15T17:24:22.279Z,8.55
2023-02-15T17:27:00.702Z,12.45
2023-02-15T17:29:39.873Z,10.02
2023-02-15T17:32:17.111Z,6.50
2023-02-15T17:35:03.850Z,9.07
2023-02-15T17:37:30.888Z,7.73
2023-02-15T17:40:00.498Z,9.90
2023-02-15T17:42:28.116Z,7.95
2023-02-15T17:44:55.197Z,10.13
2023-02-15T17:47:25.500Z,7.68
2023-02-15T17:49:54.064Z,8.57
2023-02-15T17:52:21.237Z,11.13
2023-02-15T17:55:07.120Z,14.02
2023-02-15T17:57:34.204Z,8.03
2023-02-15T18:00:20.037Z,12.23
2023-02-15T18:03:05.976Z,8.57
2023-02-15T18:05:51.622Z,6.85
2023-02-15T18:08:41.133Z,9.93
2023-02-15T18:11:29.132Z,9.35
2023-02-15T18:14:01.104Z,8.38
2023-02-15T18:16:33.052Z,6.30
2023-02-15T18:19:04.691Z,4.80
2023-02-15T18:21:33.476Z,4.90
2023-02-15T18:24:00.590Z,4.97
2023-02-15T18:26:29.211Z,3.67
2023-02-15T18:28:56.380Z,2.75
2023-02-15T18:31:24.485Z,5.47
2023-02-15T18:33:58.401Z,3.10
2023-02-15T18:36:33.204Z,6.50
2023-02-15T18:39:05.750Z,5.47
2023-02-15T18:41:34.775Z,4.13
2023-02-15T18:44:01.846Z,3.35
2023-02-15T18:46:28.950Z,4.45
2023-02-15T18:48:55.996Z,3.67
2023-02-15T18:51:23.859Z,2.72
2023-02-15T18:53:52.624Z,3.28
2023-02-15T18:56:22.309Z,3.65
2023-02-15T18:58:49.670Z,3.45
2023-02-15T19:01:19.786Z,3.63
2023-02-15T19:03:48.624Z,4.83
2023-02-15T19:06:18.511Z,2.75
2023-02-15T19:08:48.760Z,3.20
2023-02-15T19:11:23.020Z,5.53
2023-02-15T19:13:52.171Z,3.58
2023-02-15T19:16:30.699Z,3.85
2023-02-15T19:18:58.041Z,3.40
2023-02-15T19:21:26.896Z,4.97
2023-02-15T19:24:01.607Z,2.77
2023-02-15T19:26:44.420Z,2.63
2023-02-15T19:29:14.650Z,3.42
2023-02-15T19:31:42.037Z,5.70
2023-02-15T19:34:17.828Z,3.57
2023-02-15T19:36:47.218Z,2.90
2023-02-15T19:39:28.124Z,4.88
2023-02-15T19:41:55.324Z,2.63
2023-02-15T19:44:23.870Z,2.88
2023-02-15T19:46:50.980Z,3.35
2023-02-15T19:49:18.198Z,3.75
2023-02-15T19:51:46.008Z,3.97
2023-02-15T19:54:35.293Z,3.60
2023-02-15T19:57:02.424Z,3.08
2023-02-15T19:59:32.734Z,3.13
2023-02-15T20:02:00.151Z,2.50
2023-02-15T20:04:27.644Z,5.57
2023-02-15T20:06:56.844Z,5.03
2023-02-15T20:09:28.577Z,6.88
2023-02-15T20:11:56.159Z,6.07
2023-02-15T20:14:23.643Z,6.53
2023-02-15T20:16:51.308Z,4.07
2023-02-15T20:19:18.456Z,5.57
2023-02-15T20:21:51.718Z,7.78
2023-02-15T20:24:21.694Z,5.90
2023-02-15T20:26:49.106Z,2.45
2023-02-15T20:29:18.382Z,6.10
2023-02-15T20:31:45.892Z,6.07
2023-02-15T20:34:13.221Z,5.57
2023-02-15T20:36:41.691Z,1.90
2023-02-15T20:39:17.222Z,4.35
2023-02-15T20:41:47.656Z,3.50
2023-02-15T20:44:17.509Z,3.08
2023-02-15T20:46:44.756Z,3.13
2023-02-15T20:49:11.945Z,17.92
2023-02-15T20:51:41.259Z,8.25
2023-02-15T20:54:20.279Z,8.73
2023-02-15T20:56:47.682Z,7.80
2023-02-15T20:59:24.840Z,6.45
2023-02-15T21:02:02.047Z,4.15
2023-02-15T21:04:34.107Z,5.43
2023-02-15T21:07:01.448Z,4.07
2023-02-15T21:09:28.826Z,4.75
2023-02-15T21:11:58.314Z,4.18
2023-02-15T21:14:27.105Z,9.23
2023-02-15T21:16:54.244Z,6.20
2023-02-15T21:19:23.441Z,6.37
2023-02-15T21:21:53.101Z,5.78
2023-02-15T21:24:26.618Z,9.47
2023-02-15T21:26:54.835Z,4.72
2023-02-15T21:29:25.828Z,5.97
2023-02-15T21:31:53.112Z,7.82
2023-02-15T21:34:20.690Z,6.37
2023-02-15T21:36:50.535Z,5.88
2023-02-15T21:39:26.275Z,6.05
2023-02-15T21:42:14.049Z,8.68
2023-02-15T21:45:00.191Z,5.93
2023-02-15T21:47:50.187Z,9.33
2023-02-15T21:50:36.766Z,4.80
2023-02-15T21:53:05.863Z,4.50
2023-02-15T21:55:33.227Z,5.60
2023-02-15T21:58:01.184Z,3.58
2023-02-15T22:00:29.564Z,2.93
2023-02-15T22:02:59.296Z,4.82
2023-02-15T22:05:33.528Z,3.40
2023-02-15T22:08:00.926Z,5.05
2023-02-15T22:10:31.487Z,6.45
2023-02-15T22:13:03.026Z,10.05
2023-02-15T22:15:37.304Z,3.87
2023-02-15T22:18:05.351Z,4.65
2023-02-15T22:20:32.434Z,6.35
2023-02-15T22:22:59.510Z,4.03
2023-02-15T22:25:27.137Z,5.53
2023-02-15T22:27:54.599Z,4.07
2023-02-15T22:30:21.801Z,6.03
2023-02-15T22:32:49.145Z,5.10
2023-02-15T22:35:20.197Z,6.03
2023-02-15T22:37:47.247Z,6.30
2023-02-15T22:40:16.228Z,8.98
2023-02-15T22:42:47.239Z,6.47
2023-02-15T22:45:20.946Z,6.45
2023-02-15T22:47:50.166Z,7.25
2023-02-15T22:50:26.328Z,6.30
2023-02-15T22:52:53.821Z,5.60
2023-02-15T22:55:23.673Z,2.88
2023-02-15T22:57:54.492Z,3.70
2023-02-15T23:00:27.548Z,3.25
2023-02-15T23:02:55.324Z,2.35
2023-02-15T23:05:28.555Z,4.60
2023-02-15T23:07:56.165Z,2.47
2023-02-15T23:10:25.137Z,10.82
2023-02-15T23:13:16.895Z,21.13
2023-02-15T23:15:45.714Z,11.00
2023-02-15T23:18:18.764Z,15.32
2023-02-15T23:20:49.159Z,10.30
2023-02-15T23:23:17.108Z,13.57
2023-02-15T23:25:44.201Z,14.48
2023-02-15T23:28:20.040Z,15.40
2023-02-15T23:30:48.248Z,17.88
2023-02-15T23:33:15.920Z,16.20
2023-02-15T23:35:43.059Z,14.10
2023-02-15T23:38:22.111Z,10.82
2023-02-15T23:41:12.203Z,12.07
2023-02-15T23:43:41.317Z,13.75
2023-02-15T23:46:08.974Z,10.50
2023-02-15T23:48:38.673Z,13.18
2023-02-15T23:51:06.648Z,13.68
2023-02-15T23:53:34.025Z,10.93
2023-02-15T23:56:01.749Z,12.63
2023-02-15T23:58:35.203Z,7.30
